createdAt,value
2019-01-04T00:00:51.148Z,6.43
2019-01-04T00:03:20.591Z,7.63
2019-01-04T00:05:49.995Z,5.23
2019-01-04T00:08:19.432Z,6.10
2019-01-04T00:10:48.876Z,9.50
2019-01-04T00:13:18.305Z,5.07
2019-01-04T00:15:47.734Z,8.83
2019-01-04T00:18:17.161Z,10.63
2019-01-04T00:20:46.666Z,9.67
2019-01-04T00:23:16.096Z,6.40
2019-01-04T00:25:45.522Z,2.90
2019-01-04T00:28:14.929Z,5.83
2019-01-04T00:30:45.340Z,2.73
2019-01-04T00:33:14.770Z,3.77
2019-01-04T00:35:44.263Z,11.03
2019-01-04T00:38:13.673Z,4.83
2019-01-04T00:40:43.135Z,8.03
2019-01-04T00:43:12.578Z,1.53
2019-01-04T00:45:41.994Z,4.73
2019-01-04T00:48:11.409Z,2.73
2019-01-04T00:50:40.861Z,8.23
2019-01-04T00:53:10.296Z,5.07
2019-01-04T00:56:13.309Z,4.20
2019-01-04T00:59:09.946Z,7.93
2019-01-04T01:02:16.905Z,8.93
2019-01-04T01:05:48.215Z,4.57
2019-01-04T01:09:02.381Z,4.67
2019-01-04T01:12:04.131Z,8.17
2019-01-04T01:15:14.316Z,9.23
2019-01-04T01:18:39.613Z,7.47
2019-01-04T01:21:22.418Z,5.20
2019-01-04T01:24:32.042Z,3.80
2019-01-04T01:27:47.817Z,15.77
2019-01-04T01:30:53.219Z,2.53
2019-01-04T01:33:53.049Z,4.73
2019-01-04T01:37:18.749Z,2.23
2019-01-04T01:40:26.902Z,2.17
2019-01-04T01:43:40.072Z,2.00
2019-01-04T01:46:45.949Z,5.07
2019-01-04T01:50:01.629Z,1.70
2019-01-04T01:52:38.497Z,3.30
2019-01-04T01:55:11.182Z,4.47
2019-01-04T01:57:40.597Z,11.70
2019-01-04T02:00:10.217Z,2.73
2019-01-04T02:02:39.641Z,6.03
2019-01-04T02:05:09.061Z,5.33
2019-01-04T02:07:38.609Z,2.40
2019-01-04T02:10:08.966Z,5.07
2019-01-04T02:12:38.381Z,2.33
2019-01-04T02:15:08.265Z,2.63
2019-01-04T02:17:37.785Z,3.00
2019-01-04T02:20:07.469Z,5.83
2019-01-04T02:22:36.899Z,2.30
2019-01-04T02:25:06.490Z,2.83
2019-01-04T02:27:35.969Z,5.07
2019-01-04T02:30:07.670Z,1.40
2019-01-04T02:32:37.285Z,6.03
2019-01-04T02:35:06.704Z,9.97
2019-01-04T02:37:36.121Z,2.23
2019-01-04T02:40:05.549Z,5.57
2019-01-04T02:42:34.962Z,2.43
2019-01-04T02:45:04.452Z,16.53
2019-01-04T02:47:33.940Z,7.33
2019-01-04T02:50:03.608Z,2.10
2019-01-04T02:52:33.029Z,4.53
2019-01-04T02:55:02.517Z,5.87
2019-01-04T02:57:31.926Z,2.57
2019-01-04T03:00:01.350Z,1.87
2019-01-04T03:02:30.764Z,3.03
2019-01-04T03:05:00.604Z,1.50
2019-01-04T03:07:30.092Z,2.50
2019-01-04T03:09:59.550Z,8.63
2019-01-04T03:12:29.122Z,2.60
2019-01-04T03:14:58.569Z,4.00
2019-01-04T03:17:27.972Z,1.60
2019-01-04T03:19:57.403Z,1.90
2019-01-04T03:22:26.827Z,6.20
2019-01-04T03:24:56.230Z,1.83
2019-01-04T03:27:25.695Z,3.80
2019-01-04T03:29:55.169Z,5.90
2019-01-04T03:32:24.567Z,4.13
2019-01-04T03:34:55.121Z,5.63
2019-01-04T03:37:24.550Z,5.53
2019-01-04T03:39:53.957Z,3.03
2019-01-04T03:42:23.390Z,8.30
2019-01-04T03:44:52.821Z,5.80
2019-01-04T03:47:22.245Z,2.00
2019-01-04T03:49:51.666Z,1.43
2019-01-04T03:52:21.146Z,3.80
2019-01-04T03:54:50.610Z,4.60
2019-01-04T03:57:20.064Z,2.33
2019-01-04T03:59:49.482Z,5.00
2019-01-04T04:02:18.903Z,4.10
2019-01-04T04:04:48.345Z,4.97
2019-01-04T04:07:17.757Z,4.17
2019-01-04T04:09:47.186Z,2.60
2019-01-04T04:12:16.605Z,3.20
2019-01-04T04:14:46.026Z,5.60
2019-01-04T04:17:15.456Z,10.37
2019-01-04T04:19:44.865Z,3.93
2019-01-04T04:22:14.597Z,7.20
2019-01-04T04:24:44.010Z,3.30
2019-01-04T04:27:13.425Z,6.13
2019-01-04T04:29:42.841Z,4.13
2019-01-04T04:32:12.303Z,10.20
2019-01-04T04:34:41.691Z,8.50
2019-01-04T04:37:11.176Z,5.13
2019-01-04T04:39:40.594Z,6.23
2019-01-04T04:42:10.049Z,4.37
2019-01-04T04:44:39.509Z,8.37
2019-01-04T04:47:08.913Z,4.07
2019-01-04T04:49:38.343Z,6.67
2019-01-04T04:52:07.790Z,4.50
2019-01-04T04:54:37.207Z,11.37
2019-01-04T04:57:06.612Z,5.30
2019-01-04T04:59:36.043Z,7.73
2019-01-04T05:02:05.534Z,11.63
2019-01-04T05:04:35.821Z,6.60
2019-01-04T05:07:05.299Z,6.50
2019-01-04T05:09:34.722Z,4.83
2019-01-04T05:12:04.233Z,9.40
2019-01-04T05:14:33.677Z,21.13
2019-01-04T05:17:03.132Z,2.67
2019-01-04T05:19:32.557Z,3.63
2019-01-04T05:22:01.967Z,4.23
2019-01-04T05:24:31.395Z,7.63
2019-01-04T05:27:00.833Z,9.07
2019-01-04T05:29:30.261Z,2.60
2019-01-04T05:31:59.689Z,12.47
2019-01-04T05:34:29.121Z,13.07
2019-01-04T05:36:58.585Z,7.60
2019-01-04T05:39:28.009Z,8.27
2019-01-04T05:41:57.432Z,3.23
2019-01-04T05:44:26.889Z,4.30
2019-01-04T05:46:56.350Z,4.47
2019-01-04T05:49:25.813Z,4.60
2019-01-04T05:51:55.283Z,5.43
2019-01-04T05:54:24.953Z,4.30
2019-01-04T05:56:54.389Z,6.13
2019-01-04T05:59:23.802Z,6.57
2019-01-04T06:01:53.229Z,7.17
2019-01-04T06:04:22.674Z,9.27
2019-01-04T06:06:52.094Z,7.97
2019-01-04T06:09:21.505Z,8.90
2019-01-04T06:11:50.914Z,6.50
2019-01-04T06:14:20.349Z,9.77
2019-01-04T06:16:49.836Z,9.03
2019-01-04T06:19:19.258Z,11.30
2019-01-04T06:21:48.658Z,7.67
2019-01-04T06:24:18.071Z,7.37
2019-01-04T06:26:47.986Z,13.00
2019-01-04T06:29:17.415Z,10.20
2019-01-04T06:31:46.833Z,9.67
2019-01-04T06:34:16.493Z,7.23
2019-01-04T06:36:46.410Z,7.67
2019-01-04T06:39:15.822Z,10.27
2019-01-04T06:41:45.213Z,8.43
2019-01-04T06:44:14.643Z,8.07
2019-01-04T06:47:18.483Z,12.27
2019-01-04T06:49:49.085Z,12.47
2019-01-04T06:52:20.014Z,10.83
2019-01-04T06:55:38.689Z,12.87
2019-01-04T06:58:08.137Z,11.27
2019-01-04T07:00:37.558Z,7.93
2019-01-04T07:03:06.976Z,8.60
2019-01-04T07:05:36.415Z,9.27
2019-01-04T07:08:05.841Z,9.33
2019-01-04T07:10:35.281Z,8.40
2019-01-04T07:13:04.983Z,9.77
2019-01-04T07:15:34.480Z,13.10
2019-01-04T07:18:03.917Z,9.10
2019-01-04T07:20:33.348Z,17.27
2019-01-04T07:23:02.906Z,11.07
2019-01-04T07:25:32.357Z,11.03
2019-01-04T07:28:01.815Z,15.20
2019-01-04T07:30:31.299Z,14.50
2019-01-04T07:33:00.881Z,16.10
2019-01-04T07:35:30.356Z,11.70
2019-01-04T07:37:59.861Z,16.20
2019-01-04T07:40:29.329Z,13.83
2019-01-04T07:42:58.793Z,14.90
2019-01-04T07:45:28.319Z,12.67
2019-01-04T07:47:57.780Z,13.63
2019-01-04T07:50:27.201Z,13.80
2019-01-04T07:52:56.965Z,22.10
2019-01-04T07:55:26.689Z,14.53
2019-01-04T07:57:56.117Z,19.90
2019-01-04T08:00:26.639Z,16.40
2019-01-04T08:02:58.736Z,14.17
2019-01-04T08:05:28.981Z,14.13
2019-01-04T08:07:58.423Z,14.83
2019-01-04T08:10:27.898Z,16.67
2019-01-04T08:12:57.302Z,13.37
2019-01-04T08:15:26.728Z,12.47
2019-01-04T08:17:56.138Z,14.30
2019-01-04T08:20:25.605Z,13.30
2019-01-04T08:22:55.085Z,10.33
2019-01-04T08:25:24.538Z,13.47
2019-01-04T08:27:53.949Z,13.83
2019-01-04T08:30:23.383Z,10.47
2019-01-04T08:32:52.785Z,10.20
2019-01-04T08:35:22.934Z,12.07
2019-01-04T08:37:52.393Z,11.43
2019-01-04T08:40:21.894Z,14.00
2019-01-04T08:42:51.593Z,9.93
2019-01-04T08:45:21.031Z,9.53
2019-01-04T08:47:50.453Z,14.60
2019-01-04T08:50:19.919Z,13.40
2019-01-04T08:52:49.643Z,14.07
2019-01-04T08:55:28.163Z,14.27
2019-01-04T08:57:57.609Z,15.60
2019-01-04T09:00:27.042Z,10.80
2019-01-04T09:02:56.487Z,15.17
2019-01-04T09:05:26.194Z,12.13
2019-01-04T09:07:55.617Z,19.20
2019-01-04T09:10:25.041Z,17.03
2019-01-04T09:12:54.495Z,21.20
2019-01-04T09:15:23.957Z,14.03
2019-01-04T09:17:53.433Z,16.50
2019-01-04T09:20:22.883Z,15.20
2019-01-04T09:22:52.317Z,15.90
2019-01-04T09:25:21.765Z,20.20
2019-01-04T09:27:51.193Z,14.23
2019-01-04T09:30:20.627Z,15.83
2019-01-04T09:32:50.061Z,16.07
2019-01-04T09:35:19.501Z,21.13
2019-01-04T09:37:52.309Z,14.03
2019-01-04T09:40:22.323Z,14.33
2019-01-04T09:42:51.748Z,14.43
2019-01-04T09:45:21.185Z,18.50
2019-01-04T09:47:50.682Z,15.30
2019-01-04T09:50:20.146Z,16.57
2019-01-04T09:52:49.717Z,17.20
2019-01-04T09:55:19.177Z,18.70
2019-01-04T09:57:50.222Z,11.07
2019-01-04T10:00:19.641Z,13.93
2019-01-04T10:02:49.158Z,16.93
2019-01-04T10:05:18.614Z,17.07
2019-01-04T10:07:48.045Z,13.60
2019-01-04T10:10:17.489Z,14.57
2019-01-04T10:12:46.927Z,17.93
2019-01-04T10:15:16.834Z,13.63
2019-01-04T10:17:46.257Z,19.50
2019-01-04T10:20:15.687Z,15.60
2019-01-04T10:22:45.137Z,23.93
2019-01-04T10:25:14.581Z,16.37
2019-01-04T10:27:44.006Z,19.53
2019-01-04T10:30:27.607Z,18.23
2019-01-04T10:32:57.031Z,14.00
2019-01-04T10:35:26.462Z,11.90
2019-01-04T10:37:55.907Z,14.80
2019-01-04T10:40:30.828Z,17.93
2019-01-04T10:43:00.286Z,16.53
2019-01-04T10:45:29.766Z,16.43
2019-01-04T10:47:59.257Z,16.77
2019-01-04T10:50:28.669Z,15.77
2019-01-04T10:52:58.113Z,18.73
2019-01-04T10:55:27.601Z,18.57
2019-01-04T10:57:57.054Z,20.00
2019-01-04T11:00:26.617Z,20.17
2019-01-04T11:02:56.061Z,19.50
2019-01-04T11:05:25.501Z,21.83
2019-01-04T11:07:54.937Z,17.83
2019-01-04T11:10:24.366Z,19.33
2019-01-04T11:12:53.797Z,18.80
2019-01-04T11:15:23.232Z,16.93
2019-01-04T11:17:52.629Z,18.37
2019-01-04T11:20:38.841Z,18.23
2019-01-04T11:23:47.469Z,15.63
2019-01-04T11:26:26.801Z,18.93
2019-01-04T11:29:18.521Z,16.83
2019-01-04T11:32:00.121Z,23.63
2019-01-04T11:35:20.607Z,21.53
2019-01-04T11:38:16.907Z,27.67
2019-01-04T11:41:18.950Z,21.67
2019-01-04T11:44:16.199Z,16.53
2019-01-04T11:47:29.958Z,16.90
2019-01-04T11:50:29.199Z,19.43
2019-01-04T11:53:04.946Z,17.60
2019-01-04T11:55:34.361Z,22.83
2019-01-04T11:58:03.867Z,21.40
2019-01-04T12:00:33.333Z,17.80
2019-01-04T12:03:02.777Z,21.07
2019-01-04T12:05:32.206Z,17.97
2019-01-04T12:08:01.643Z,13.67
2019-01-04T12:10:31.059Z,14.73
2019-01-04T12:13:00.558Z,17.73
2019-01-04T12:15:29.969Z,17.27
2019-01-04T12:17:59.456Z,15.70
2019-01-04T12:20:29.137Z,18.70
2019-01-04T12:22:58.550Z,11.80
2019-01-04T12:25:27.973Z,12.97
2019-01-04T12:27:57.969Z,14.43
2019-01-04T12:30:27.450Z,12.97
2019-01-04T12:32:56.878Z,11.97
2019-01-04T12:35:26.354Z,15.40
2019-01-04T12:37:55.757Z,10.03
2019-01-04T12:40:25.194Z,14.60
2019-01-04T12:42:56.023Z,13.10
2019-01-04T12:45:25.525Z,17.53
2019-01-04T12:47:56.769Z,22.10
2019-01-04T12:50:26.201Z,22.20
2019-01-04T12:52:55.625Z,17.73
2019-01-04T12:55:25.049Z,21.67
2019-01-04T12:57:54.470Z,16.83
2019-01-04T13:00:23.962Z,20.17
2019-01-04T13:02:53.558Z,18.77
2019-01-04T13:05:22.964Z,14.33
2019-01-04T13:07:52.381Z,13.57
2019-01-04T13:10:21.813Z,17.37
2019-01-04T13:12:51.418Z,13.73
2019-01-04T13:15:20.868Z,19.10
2019-01-04T13:17:50.279Z,21.00
2019-01-04T13:20:19.705Z,16.17
2019-01-04T13:22:49.318Z,14.37
2019-01-04T13:25:18.757Z,23.07
2019-01-04T13:27:48.176Z,18.57
2019-01-04T13:30:17.612Z,14.70
2019-01-04T13:32:47.030Z,14.37
2019-01-04T13:35:16.453Z,20.63
2019-01-04T13:37:46.317Z,24.67
2019-01-04T13:40:15.728Z,18.50
2019-01-04T13:42:45.141Z,16.17
2019-01-04T13:45:14.568Z,19.67
2019-01-04T13:47:44.135Z,18.17
2019-01-04T13:50:13.571Z,17.40
2019-01-04T13:52:43.022Z,13.10
2019-01-04T13:55:12.471Z,16.77
2019-01-04T13:57:41.893Z,16.97
2019-01-04T14:00:11.447Z,10.87
2019-01-04T14:02:40.881Z,19.70
2019-01-04T14:05:10.305Z,10.33
2019-01-04T14:07:39.725Z,15.87
2019-01-04T14:10:09.560Z,9.90
2019-01-04T14:12:38.981Z,9.13
2019-01-04T14:15:08.610Z,10.73
2019-01-04T14:17:38.055Z,8.23
2019-01-04T14:20:08.067Z,10.80
2019-01-04T14:22:37.472Z,10.27
2019-01-04T14:25:07.877Z,11.33
2019-01-04T14:27:37.300Z,12.40
2019-01-04T14:30:08.537Z,8.43
2019-01-04T15:46:41.330Z,12.60
2019-01-04T15:49:10.765Z,10.00
2019-01-04T15:51:40.213Z,12.03
2019-01-04T15:54:09.659Z,12.23
2019-01-04T15:56:39.098Z,13.30
2019-01-04T16:28:36.342Z,6.23
2019-01-04T16:31:05.761Z,6.27
2019-01-04T16:33:35.402Z,13.80
2019-01-04T16:36:05.381Z,6.47
2019-01-04T16:38:34.791Z,12.20
2019-01-04T16:41:04.341Z,8.73
2019-01-04T16:43:33.830Z,8.60
2019-01-04T16:46:04.542Z,9.50
2019-01-04T16:48:33.952Z,8.87
2019-01-04T16:51:03.547Z,11.80
2019-01-04T16:53:33.006Z,10.47
2019-01-04T16:56:02.518Z,5.57
2019-01-04T16:58:32.206Z,20.13
2019-01-04T17:01:01.650Z,14.60
2019-01-04T17:03:31.064Z,12.00
2019-01-04T17:06:00.734Z,10.60
2019-01-04T17:08:30.175Z,14.30
2019-01-04T17:10:59.677Z,11.67
2019-01-04T17:13:29.210Z,7.30
2019-01-04T17:15:58.642Z,10.97
2019-01-04T17:18:28.083Z,12.33
2019-01-04T17:20:57.537Z,8.47
2019-01-04T17:23:27.515Z,10.43
2019-01-04T17:25:56.969Z,17.63
2019-01-04T17:28:26.826Z,8.63
2019-01-04T17:30:56.250Z,13.43
2019-01-04T17:33:25.784Z,11.77
2019-01-04T17:35:55.268Z,7.57
2019-01-04T17:38:24.963Z,14.50
2019-01-04T17:40:55.416Z,8.13
2019-01-04T17:43:24.882Z,9.23
2019-01-04T17:45:54.618Z,6.40
2019-01-04T17:48:24.163Z,18.30
2019-01-04T17:50:53.600Z,6.10
2019-01-04T17:53:23.069Z,11.57
2019-01-04T17:55:53.480Z,11.00
2019-01-04T17:58:22.882Z,11.30
2019-01-04T18:00:52.314Z,12.00
2019-01-04T18:03:22.114Z,17.30
2019-01-04T18:05:51.719Z,9.40
2019-01-04T18:08:21.182Z,12.53
2019-01-04T18:10:50.670Z,11.03
2019-01-04T18:13:20.151Z,7.60
2019-01-04T18:15:49.570Z,15.10
2019-01-04T18:18:18.986Z,6.97
2019-01-04T18:20:48.972Z,7.37
2019-01-04T18:23:19.082Z,12.97
2019-01-04T18:25:48.914Z,12.27
2019-01-04T18:28:18.336Z,15.40
2019-01-04T18:30:47.770Z,17.63
2019-01-04T18:33:17.243Z,16.73
2019-01-04T18:35:46.740Z,14.60
2019-01-04T18:38:16.705Z,8.23
2019-01-04T18:40:46.190Z,9.03
2019-01-04T18:43:15.872Z,9.37
2019-01-04T18:45:45.325Z,11.90
2019-01-04T18:48:15.319Z,7.30
2019-01-04T18:50:45.798Z,15.33
2019-01-04T18:53:15.262Z,19.80
2019-01-04T18:55:45.113Z,12.63
2019-01-04T18:58:14.588Z,14.80
2019-01-04T19:00:44.019Z,17.83
2019-01-04T19:03:13.482Z,17.03
2019-01-04T19:05:42.899Z,22.90
2019-01-04T19:08:12.342Z,10.33
2019-01-04T19:10:42.035Z,12.00
2019-01-04T19:13:11.723Z,16.30
2019-01-04T19:15:41.155Z,8.93
2019-01-04T19:18:10.598Z,15.70
2019-01-04T19:20:40.133Z,10.40
2019-01-04T19:23:09.986Z,10.50
2019-01-04T19:25:39.446Z,12.07
2019-01-04T19:28:09.307Z,14.63
2019-01-04T19:30:38.816Z,12.93
2019-01-04T19:33:08.333Z,13.47
2019-01-04T19:35:38.554Z,17.73
2019-01-04T19:38:09.594Z,16.47
2019-01-04T19:40:39.403Z,16.27
2019-01-04T19:43:09.346Z,14.43
2019-01-04T19:45:38.778Z,11.30
2019-01-04T19:48:08.967Z,13.37
2019-01-04T19:50:39.369Z,21.40
2019-01-04T19:53:08.810Z,13.73
2019-01-04T19:55:38.620Z,8.97
2019-01-04T19:58:08.138Z,14.27
2019-01-04T20:00:37.642Z,15.37
2019-01-04T20:03:07.082Z,14.90
2019-01-04T20:06:35.402Z,10.80
2019-01-04T20:10:18.766Z,9.43
2019-01-04T20:14:03.978Z,8.40
2019-01-04T20:17:04.578Z,17.17
2019-01-04T20:19:53.983Z,15.37
2019-01-04T20:22:41.222Z,12.33
2019-01-04T20:25:43.851Z,30.40
2019-01-04T20:28:31.591Z,13.53
2019-01-04T20:31:20.089Z,18.67
2019-01-04T20:34:07.844Z,8.93
2019-01-04T20:37:08.500Z,18.70
2019-01-04T20:39:56.313Z,5.97
2019-01-04T20:42:43.603Z,6.80
2019-01-04T20:45:27.446Z,9.73
2019-01-04T20:48:17.034Z,16.20
2019-01-04T20:51:04.906Z,11.53
2019-01-04T20:53:52.353Z,9.27
2019-01-04T20:56:45.419Z,13.17
2019-01-04T20:59:33.208Z,14.23
2019-01-04T21:02:32.802Z,10.07
2019-01-04T21:05:20.343Z,14.17
2019-01-04T21:08:11.941Z,8.00
2019-01-04T21:11:11.002Z,9.67
2019-01-04T21:13:59.697Z,9.57
2019-01-04T21:17:02.662Z,7.97
2019-01-04T21:19:50.399Z,14.60
2019-01-04T21:22:38.054Z,8.97
2019-01-04T21:25:18.013Z,8.17
2019-01-04T21:27:59.898Z,13.27
2019-01-04T21:30:57.558Z,4.73
2019-01-04T21:33:44.816Z,18.57
2019-01-04T21:36:33.508Z,9.30
2019-01-04T21:39:26.530Z,13.43
2019-01-04T21:42:24.458Z,9.30
2019-01-04T21:45:21.650Z,4.87
2019-01-04T21:48:10.169Z,12.00
2019-01-04T21:50:55.230Z,12.70
2019-01-04T21:53:40.735Z,10.33
2019-01-04T21:56:29.328Z,16.03
2019-01-04T21:59:16.642Z,11.40
2019-01-04T22:02:04.152Z,7.07
2019-01-04T22:10:30.367Z,7.60
2019-01-04T22:13:12.250Z,9.40
2019-01-04T22:15:59.636Z,9.83
2019-01-04T22:18:51.679Z,9.37
2019-01-04T22:21:49.250Z,6.70
2019-01-04T22:24:39.004Z,8.60
2019-01-04T22:27:32.670Z,8.47
2019-01-04T22:30:10.977Z,7.77
2019-01-04T22:32:58.767Z,5.77
2019-01-04T22:35:46.269Z,5.60
2019-01-04T22:38:43.810Z,11.57
2019-01-04T22:41:37.643Z,5.40
2019-01-04T22:44:21.226Z,14.27
2019-01-04T22:47:09.729Z,11.47
2019-01-04T22:49:51.099Z,10.57
2019-01-04T22:52:38.334Z,16.90
2019-01-04T22:55:30.711Z,16.07
2019-01-04T22:58:28.283Z,7.00
2019-01-04T23:01:20.718Z,6.03
2019-01-04T23:04:07.938Z,5.50
2019-01-04T23:10:08.098Z,4.97
2019-01-04T23:12:55.778Z,4.23
2019-01-04T23:15:50.346Z,10.60
2019-01-04T23:18:37.037Z,3.67
2019-01-04T23:22:20.243Z,5.53
2019-01-04T23:25:10.310Z,13.80
2019-01-04T23:28:01.985Z,8.40
2019-01-04T23:30:40.951Z,7.53
2019-01-04T23:33:25.875Z,9.57
2019-01-04T23:36:13.234Z,10.40
2019-01-04T23:39:01.033Z,10.10
2019-01-04T23:41:56.118Z,6.03
2019-01-04T23:44:47.777Z,10.20
2019-01-04T23:47:39.478Z,7.33
2019-01-04T23:50:27.053Z,7.13
2019-01-04T23:53:14.648Z,12.40
2019-01-04T23:56:12.894Z,15.90
2019-01-04T23:59:10.049Z,7.67
